Time;durP1;ratioP1;P1;durP2;ratioP2;P2;SDS_P1;SDS_P2;PMS_P1;PMS_P2;Temp;Humidity;BMP_temperature;BMP_pressure;BME280_temperature;BME280_humidity;BME280_pressure;Samples;Min_cycle;Max_cycle;Signal;HPM_P1;HPM_P2
2022/06/22 00:01:43;;;;;;;8.50;4.80;;;15.00;99.90;;;;;;5079877;28;20515;-56
2022/06/22 00:04:21;;;;;;;5.17;4.67;;;15.00;99.90;;;;;;5079544;28;20572;-55
2022/06/22 00:07:04;;;;;;;5.53;5.00;;;14.90;99.90;;;;;;5078756;28;20901;-57
2022/06/22 00:09:38;;;;;;;8.13;4.43;;;14.90;99.90;;;;;;5078684;28;20496;-55
2022/06/22 00:12:19;;;;;;;10.50;5.47;;;14.90;99.90;;;;;;5079357;28;22487;-57
2022/06/22 00:14:49;;;;;;;6.07;4.73;;;14.80;99.90;;;;;;5079146;28;20828;-58
2022/06/22 00:17:23;;;;;;;9.47;4.50;;;14.60;99.90;;;;;;5079244;28;20510;-54
2022/06/22 00:19:51;;;;;;;6.93;4.70;;;14.60;99.90;;;;;;5079256;28;20458;-55
2022/06/22 00:22:24;;;;;;;6.10;5.00;;;14.40;99.90;;;;;;5078869;28;20514;-54
2022/06/22 00:24:59;;;;;;;5.67;5.17;;;14.40;99.90;;;;;;5078793;28;20496;-56
2022/06/22 00:27:36;;;;;;;4.97;4.50;;;14.40;99.90;;;;;;5078895;28;20514;-57
2022/06/22 00:30:16;;;;;;;6.70;5.10;;;14.30;99.90;;;;;;5079239;28;20892;-57
2022/06/22 00:33:02;;;;;;;6.13;5.17;;;14.20;1.00;;;;;;5078629;28;20514;-57
2022/06/22 00:35:52;;;;;;;6.50;4.60;;;14.10;1.00;;;;;;5078809;28;20568;-57
2022/06/22 00:38:23;;;;;;;4.93;4.50;;;14.00;99.90;;;;;;5078673;28;20488;-56
2022/06/22 00:40:56;;;;;;;5.40;4.90;;;14.00;1.00;;;;;;5078771;28;20464;-57
2022/06/22 00:43:28;;;;;;;7.40;4.70;;;13.90;1.00;;;;;;5078697;28;20914;-57
2022/06/22 00:45:58;;;;;;;7.60;5.37;;;13.80;1.00;;;;;;5078702;28;20767;-56
2022/06/22 00:48:31;;;;;;;7.57;5.13;;;13.70;1.00;;;;;;5078699;28;20958;-58
2022/06/22 00:51:04;;;;;;;5.80;5.07;;;13.70;1.00;;;;;;5078365;28;20493;-57
2022/06/22 00:53:36;;;;;;;5.80;5.20;;;13.70;1.00;;;;;;5078515;28;20468;-55
2022/06/22 00:56:12;;;;;;;5.40;4.90;;;13.70;1.00;;;;;;5078378;28;20472;-56
2022/06/22 00:58:52;;;;;;;5.27;4.77;;;13.60;1.00;;;;;;5078020;28;20551;-57
2022/06/22 01:01:27;;;;;;;5.70;5.20;;;13.60;1.00;;;;;;5078324;28;20456;-58
2022/06/22 01:04:03;;;;;;;5.60;4.63;;;13.50;1.00;;;;;;5078492;28;20734;-57
2022/06/22 01:06:41;;;;;;;5.77;4.77;;;13.50;1.00;;;;;;5078140;28;20492;-57
2022/06/22 01:09:13;;;;;;;8.70;4.60;;;13.40;1.00;;;;;;5077747;28;20464;-56
2022/06/22 01:14:41;;;;;;;6.10;5.47;;;13.30;1.00;;;;;;5077524;28;20885;-57
2022/06/22 01:17:20;;;;;;;7.57;5.50;;;13.30;1.00;;;;;;5077695;28;20575;-56
2022/06/22 01:19:56;;;;;;;6.60;5.70;;;13.30;1.00;;;;;;5077997;28;20551;-57
2022/06/22 01:22:42;;;;;;;6.27;5.00;;;13.20;1.00;;;;;;5077461;28;20526;-56
2022/06/22 01:25:29;;;;;;;8.30;5.70;;;13.20;1.00;;;;;;5078014;28;20555;-55
2022/06/22 01:28:00;;;;;;;7.17;4.80;;;13.10;1.00;;;;;;5078104;28;20518;-57
2022/06/22 01:30:33;;;;;;;6.57;5.63;;;13.10;1.00;;;;;;5077533;28;20500;-56
2022/06/22 01:33:06;;;;;;;6.97;6.27;;;13.00;1.00;;;;;;5077542;28;20472;-57
2022/06/22 01:35:35;;;;;;;8.00;4.93;;;12.90;1.00;;;;;;5078025;28;20589;-54
2022/06/22 01:38:13;;;;;;;6.77;4.63;;;12.80;31.40;;;;;;5078026;28;20461;-56
2022/06/22 01:40:46;;;;;;;6.00;5.00;;;12.80;55.30;;;;;;5077064;28;20467;-57
2022/06/22 01:43:24;;;;;;;6.33;5.70;;;12.80;1.00;;;;;;5077960;28;20534;-57
2022/06/22 01:45:58;;;;;;;6.30;5.43;;;12.90;1.00;;;;;;5077417;28;20468;-57
2022/06/22 01:48:31;;;;;;;6.23;5.63;;;12.80;1.00;;;;;;5077337;28;20736;-57
2022/06/22 01:51:05;;;;;;;5.47;4.70;;;12.80;1.00;;;;;;5077456;28;20591;-57
2022/06/22 01:53:38;;;;;;;7.20;5.10;;;12.80;1.00;;;;;;5077760;28;20469;-58
2022/06/22 01:56:15;;;;;;;5.83;4.63;;;12.80;1.00;;;;;;5077799;28;20979;-56
2022/06/22 01:58:56;;;;;;;6.07;5.47;;;12.70;1.00;;;;;;5077350;28;20575;-57
2022/06/22 02:01:28;;;;;;;6.00;5.40;;;12.80;1.00;;;;;;5077364;28;20436;-56
2022/06/22 02:04:11;;;;;;;6.67;5.23;;;12.70;1.00;;;;;;5077604;28;20464;-57
2022/06/22 02:09:49;;;;;;;6.80;5.67;;;12.30;99.90;;;;;;5077000;28;20741;-57
2022/06/22 02:12:20;;;;;;;9.40;5.90;;;12.30;99.90;;;;;;5076929;28;20548;-57
2022/06/22 02:14:53;;;;;;;7.13;5.50;;;12.30;99.90;;;;;;5077052;28;20461;-57
2022/06/22 02:17:25;;;;;;;6.50;5.90;;;12.40;99.90;;;;;;5077349;28;20556;-57
2022/06/22 02:20:27;;;;;;;11.27;6.03;;;12.30;12.60;;;;;;5077405;28;20503;-56
2022/06/22 02:23:03;;;;;;;6.20;5.57;;;12.40;19.10;;;;;;5076649;28;20928;-58
2022/06/22 02:25:34;;;;;;;6.13;5.03;;;12.40;8.30;;;;;;5077097;28;20464;-57
2022/06/22 02:28:01;;;;;;;7.03;5.90;;;12.40;1.00;;;;;;5076641;28;20461;-57
2022/06/22 02:30:31;;;;;;;6.37;5.40;;;12.30;2.40;;;;;;5076804;28;20947;-55
2022/06/22 02:32:58;;;;;;;6.73;5.13;;;12.20;7.40;;;;;;5077069;28;20750;-57
2022/06/22 02:35:29;;;;;;;7.07;5.43;;;12.10;91.80;;;;;;5077014;28;20508;-57
2022/06/22 02:38:06;;;;;;;8.77;4.93;;;12.10;99.90;;;;;;5077018;28;20555;-56
2022/06/22 02:44:29;;;;;;;6.60;5.97;;;12.00;99.90;;;;;;5077142;28;20746;-58
2022/06/22 02:46:14;;;;;;;7.40;5.37;;;12.10;78.90;;;;;;5076476;28;20903;-57
2022/06/22 02:48:43;;;;;;;7.73;5.47;;;12.10;29.60;;;;;;5076716;28;20466;-57
2022/06/22 02:51:17;;;;;;;8.07;5.73;;;12.10;14.10;;;;;;5076820;28;20496;-56
2022/06/22 02:53:46;;;;;;;9.30;6.00;;;12.10;24.80;;;;;;5077306;28;20460;-57
2022/06/22 02:56:17;;;;;;;6.40;5.80;;;12.10;1.00;;;;;;5076346;28;20556;-57
2022/06/22 02:58:49;;;;;;;7.47;6.10;;;12.00;1.00;;;;;;5078332;28;20544;-57
2022/06/22 03:01:21;;;;;;;6.60;5.27;;;11.90;1.00;;;;;;5081020;28;20559;-58
2022/06/22 03:03:53;;;;;;;8.03;5.77;;;11.90;11.60;;;;;;5080638;28;20948;-58
2022/06/22 03:06:24;;;;;;;8.60;6.87;;;11.90;99.90;;;;;;5080121;28;20469;-53
2022/06/22 03:08:52;;;;;;;7.87;5.67;;;12.00;99.90;;;;;;5080414;28;20497;-57
2022/06/22 03:11:21;;;;;;;8.77;5.90;;;11.90;99.90;;;;;;5080316;28;20597;-54
2022/06/22 03:13:54;;;;;;;10.33;6.40;;;11.90;99.90;;;;;;5080433;28;20783;-57
2022/06/22 03:16:28;;;;;;;6.03;5.43;;;12.00;99.90;;;;;;5079702;28;20496;-57
2022/06/22 03:18:58;;;;;;;9.00;5.47;;;11.90;85.80;;;;;;5080343;28;20550;-58
2022/06/22 03:21:26;;;;;;;8.73;6.40;;;11.90;20.80;;;;;;5080456;28;20526;-58
2022/06/22 03:23:58;;;;;;;8.47;5.87;;;11.80;29.60;;;;;;5080193;28;20524;-58
2022/06/22 03:26:29;;;;;;;7.30;5.87;;;11.60;99.90;;;;;;5079801;28;20559;-56
2022/06/22 03:29:09;;;;;;;7.23;6.37;;;11.60;99.90;;;;;;5079724;28;20560;-58
2022/06/22 03:31:45;;;;;;;7.20;6.50;;;11.50;1.00;;;;;;5080253;28;20489;-58
2022/06/22 03:34:17;;;;;;;7.70;5.90;;;11.60;1.00;;;;;;5079752;28;20901;-57
2022/06/22 03:36:48;;;;;;;5.60;5.10;;;11.60;1.00;;;;;;5079916;28;20552;-57
2022/06/22 03:39:24;;;;;;;8.63;5.83;;;11.60;99.90;;;;;;5079988;28;20483;-57
2022/06/22 03:41:59;;;;;;;7.60;6.10;;;11.60;99.90;;;;;;5079874;28;20492;-58
2022/06/22 03:44:31;;;;;;;7.60;5.90;;;11.80;99.90;;;;;;5079677;28;20774;-58
2022/06/22 03:47:06;;;;;;;7.50;5.40;;;11.90;99.90;;;;;;5079862;28;20556;-57
2022/06/22 03:49:37;;;;;;;9.17;6.73;;;11.80;99.90;;;;;;5080034;28;20461;-57
2022/06/22 03:52:11;;;;;;;7.80;6.40;;;11.80;99.90;;;;;;5079743;28;21667;-57
2022/06/22 03:54:48;;;;;;;7.00;6.07;;;11.80;99.90;;;;;;5079552;28;20457;-57
2022/06/22 03:57:22;;;;;;;7.60;6.83;;;11.70;99.90;;;;;;5079844;28;20711;-58
2022/06/22 03:59:49;;;;;;;9.23;7.40;;;11.80;1.00;;;;;;5079683;28;20519;-57
2022/06/22 04:02:19;;;;;;;8.70;6.50;;;11.80;1.00;;;;;;5079786;28;20464;-58
2022/06/22 04:04:50;;;;;;;7.90;6.70;;;11.90;1.00;;;;;;5079403;28;20556;-55
2022/06/22 04:07:21;;;;;;;8.73;7.83;;;12.10;1.00;;;;;;5078274;28;20461;-57
2022/06/22 04:09:52;;;;;;;6.93;6.23;;;12.10;99.90;;;;;;5079265;28;20461;-58
2022/06/22 04:12:26;;;;;;;9.50;6.87;;;12.10;99.90;;;;;;5079175;28;20512;-57
2022/06/22 04:14:57;;;;;;;7.30;6.30;;;12.20;99.90;;;;;;5079147;28;20495;-58
2022/06/22 04:17:32;;;;;;;7.60;6.40;;;12.30;99.90;;;;;;5078941;28;20583;-58
2022/06/22 04:20:05;;;;;;;7.17;6.57;;;12.30;99.90;;;;;;5079546;28;20533;-58
2022/06/22 04:22:40;;;;;;;8.33;6.90;;;12.40;99.90;;;;;;5078932;28;20556;-58
2022/06/22 04:25:19;;;;;;;9.30;6.33;;;12.50;99.90;;;;;;5080119;28;20534;-57
2022/06/22 04:27:49;;;;;;;10.43;6.50;;;12.60;98.30;;;;;;5078970;28;20799;-58
2022/06/22 04:30:22;;;;;;;9.60;6.93;;;12.70;30.00;;;;;;5078631;28;20461;-58
2022/06/22 04:33:01;;;;;;;7.33;6.63;;;12.70;1.00;;;;;;5078686;28;20956;-58
2022/06/22 04:35:38;;;;;;;8.10;7.30;;;12.90;1.00;;;;;;5079169;28;20462;-58
2022/06/22 04:38:13;;;;;;;9.13;7.30;;;13.00;1.00;;;;;;5078987;28;20568;-58
2022/06/22 04:40:54;;;;;;;7.40;6.70;;;13.10;1.00;;;;;;5078631;28;20453;-58
2022/06/22 04:43:28;;;;;;;8.33;7.10;;;13.30;1.00;;;;;;5078899;28;20457;-58
2022/06/22 04:45:57;;;;;;;7.97;7.00;;;13.40;1.00;;;;;;5078742;28;20484;-58
2022/06/22 04:48:30;;;;;;;7.10;6.40;;;13.40;1.00;;;;;;5078601;28;20461;-59
2022/06/22 04:51:02;;;;;;;12.03;7.77;;;13.40;1.00;;;;;;5078541;28;20536;-58
2022/06/22 04:53:35;;;;;;;7.60;6.27;;;13.50;1.00;;;;;;5076658;28;20890;-58
2022/06/22 04:56:06;;;;;;;10.17;7.13;;;13.50;1.00;;;;;;5077462;28;20461;-58
2022/06/22 04:58:40;;;;;;;11.43;6.70;;;13.50;1.00;;;;;;5077704;28;20461;-57
2022/06/22 05:01:07;;;;;;;8.70;6.63;;;13.50;1.00;;;;;;5078292;28;20544;-58
2022/06/22 05:03:37;;;;;;;8.47;7.57;;;13.60;1.00;;;;;;5077623;28;20555;-59
2022/06/22 05:06:15;;;;;;;14.77;8.20;;;13.60;1.00;;;;;;5077231;28;20443;-59
2022/06/22 05:08:51;;;;;;;9.80;7.60;;;13.70;1.00;;;;;;5077479;28;20443;-58
2022/06/22 05:11:27;;;;;;;8.70;7.20;;;13.80;1.00;;;;;;5077915;28;20495;-59
2022/06/22 05:13:59;;;;;;;10.57;7.73;;;13.90;1.00;;;;;;5078410;28;20487;-59
2022/06/22 05:16:35;;;;;;;9.00;7.67;;;14.00;1.00;;;;;;5077452;28;21015;-59
2022/06/22 05:19:06;;;;;;;11.90;7.00;;;14.20;1.00;;;;;;5077933;28;20503;-59
2022/06/22 05:21:37;;;;;;;10.00;7.77;;;14.40;1.00;;;;;;5077642;28;20828;-59
2022/06/22 05:24:16;;;;;;;9.73;7.27;;;14.60;1.00;;;;;;5078063;28;20461;-57
2022/06/22 05:26:48;;;;;;;10.10;8.33;;;14.70;1.00;;;;;;5077712;28;20436;-59
2022/06/22 05:29:25;;;;;;;9.50;6.73;;;14.90;1.00;;;;;;5058688;28;20492;-59
2022/06/22 05:31:58;;;;;;;9.50;7.27;;;15.10;1.00;;;;;;5056961;28;20500;-59
2022/06/22 05:34:34;;;;;;;10.33;6.83;;;15.30;1.00;;;;;;5056061;28;20497;-59
2022/06/22 05:37:13;;;;;;;10.13;8.23;;;15.50;1.00;;;;;;5056376;28;20465;-59
2022/06/22 05:39:41;;;;;;;9.13;6.53;;;15.70;1.00;;;;;;5056861;28;20727;-59
2022/06/22 05:42:12;;;;;;;7.57;6.77;;;16.10;1.00;;;;;;5057256;28;20480;-59
2022/06/22 05:44:39;;;;;;;7.77;7.07;;;16.30;1.00;;;;;;5056811;28;20462;-59
2022/06/22 05:47:18;;;;;;;9.00;5.80;;;16.40;99.90;;;;;;5056855;28;20467;-60
2022/06/22 05:49:52;;;;;;;9.60;7.10;;;16.60;99.90;;;;;;5057809;28;20491;-59
2022/06/22 05:52:30;;;;;;;8.77;6.57;;;16.80;99.90;;;;;;5056216;28;20499;-59
2022/06/22 05:55:03;;;;;;;7.83;6.80;;;17.00;99.90;;;;;;5056022;28;20561;-60
2022/06/22 05:57:37;;;;;;;10.37;7.67;;;17.10;99.90;;;;;;5056251;28;20468;-60
2022/06/22 06:00:11;;;;;;;8.87;5.90;;;17.50;99.90;;;;;;5056939;28;20915;-59
2022/06/22 06:02:44;;;;;;;6.30;5.70;;;17.80;99.90;;;;;;5057086;28;20981;-59
2022/06/22 06:05:21;;;;;;;10.93;5.60;;;18.30;99.90;;;;;;5057179;28;20462;-60
2022/06/22 06:07:53;;;;;;;7.10;5.90;;;18.80;99.90;;;;;;5056831;28;20468;-59
2022/06/22 06:10:23;;;;;;;7.00;5.40;;;19.10;99.90;;;;;;5056807;28;20818;-60
2022/06/22 06:12:57;;;;;;;7.77;5.60;;;19.50;99.90;;;;;;5057050;28;20494;-61
2022/06/22 06:15:25;;;;;;;7.47;5.70;;;19.60;99.90;;;;;;5057017;28;20470;-60
2022/06/22 06:17:58;;;;;;;7.20;5.60;;;19.80;99.90;;;;;;5057146;28;20462;-60
2022/06/22 06:20:29;;;;;;;7.73;5.30;;;20.00;99.90;;;;;;5057138;28;20882;-59
2022/06/22 06:23:03;;;;;;;6.20;5.37;;;20.20;99.90;;;;;;5056952;28;20462;-60
2022/06/22 06:28:34;;;;;;;9.87;5.30;;;20.30;99.90;;;;;;5056679;28;20752;-60
2022/06/22 06:31:12;;;;;;;6.77;6.00;;;20.50;99.90;;;;;;5061962;28;20545;-60
2022/06/22 06:33:40;;;;;;;5.17;4.40;;;20.90;99.90;;;;;;5046470;28;20491;-60
2022/06/22 06:36:16;;;;;;;5.00;4.57;;;21.00;99.90;;;;;;5080546;28;20436;-60
2022/06/22 06:38:51;;;;;;;7.70;5.20;;;21.20;99.90;;;;;;5080384;28;20547;-61
2022/06/22 06:41:26;;;;;;;5.77;5.23;;;21.50;99.90;;;;;;5081065;28;20463;-60
2022/06/22 06:44:02;;;;;;;7.53;5.17;;;21.90;99.90;;;;;;5081123;28;20938;-62
2022/06/22 06:46:38;;;;;;;5.13;4.73;;;22.00;99.90;;;;;;5080918;28;20565;-61
2022/06/22 06:49:15;;;;;;;5.60;5.00;;;22.00;99.90;;;;;;5079795;28;20467;-60
2022/06/22 06:51:56;;;;;;;5.37;4.87;;;21.80;99.90;;;;;;5059768;28;20930;-60
2022/06/22 06:54:29;;;;;;;5.03;4.53;;;22.30;99.90;;;;;;5050408;28;20461;-61
2022/06/22 06:57:00;;;;;;;7.07;4.07;;;22.70;99.90;;;;;;5064891;28;20527;-59
2022/06/22 06:59:29;;;;;;;6.57;5.20;;;23.10;99.90;;;;;;5072130;28;20434;-60
2022/06/22 07:02:04;;;;;;;7.57;4.53;;;23.30;99.90;;;;;;5072041;28;20424;-60
2022/06/22 07:04:45;;;;;;;6.07;4.20;;;23.30;99.90;;;;;;5056085;28;20920;-59
2022/06/22 07:07:27;;;;;;;6.53;4.17;;;23.50;99.90;;;;;;5063328;28;20469;-59
2022/06/22 07:10:02;;;;;;;5.40;4.43;;;23.30;99.90;;;;;;5056143;28;20462;-61
2022/06/22 07:12:35;;;;;;;8.40;4.13;;;23.50;99.90;;;;;;5056340;28;20937;-61
2022/06/22 07:15:04;;;;;;;6.83;5.60;;;23.60;99.90;;;;;;5060026;28;20461;-61
2022/06/22 07:17:33;;;;;;;7.40;4.90;;;23.70;99.90;;;;;;5060081;28;20551;-61
2022/06/22 07:20:05;;;;;;;5.63;4.80;;;23.70;99.90;;;;;;5059719;28;20469;-61
2022/06/22 07:22:38;;;;;;;6.23;4.33;;;23.90;99.90;;;;;;5058166;28;20498;-60
2022/06/22 07:25:15;;;;;;;5.30;3.90;;;24.00;99.90;;;;;;5058951;28;20468;-59
2022/06/22 07:27:49;;;;;;;4.57;4.17;;;24.10;99.90;;;;;;5059561;28;20475;-60
2022/06/22 07:30:22;;;;;;;7.00;4.30;;;24.50;99.90;;;;;;5059841;28;20811;-59
2022/06/22 07:32:54;;;;;;;7.33;3.93;;;24.70;99.90;;;;;;5059238;28;20493;-60
2022/06/22 07:35:28;;;;;;;4.93;4.43;;;24.60;99.90;;;;;;5060102;28;20879;-60
2022/06/22 07:38:07;;;;;;;9.30;4.03;;;24.50;99.90;;;;;;5057931;28;20939;-59
2022/06/22 07:40:37;;;;;;;3.70;3.40;;;24.60;99.90;;;;;;5059326;28;20560;-60
2022/06/22 07:43:06;;;;;;;4.20;3.47;;;25.10;99.90;;;;;;5059675;28;20458;-61
2022/06/22 07:45:33;;;;;;;4.87;3.53;;;25.50;99.90;;;;;;5058784;28;20458;-60
2022/06/22 07:48:06;;;;;;;7.63;3.87;;;25.30;99.90;;;;;;5063722;28;20949;-61
2022/06/22 07:50:36;;;;;;;5.60;3.93;;;25.20;99.90;;;;;;5068581;28;20458;-61
2022/06/22 07:53:14;;;;;;;6.77;4.00;;;25.30;99.90;;;;;;5066962;28;20957;-62
2022/06/22 07:55:47;;;;;;;4.47;3.70;;;25.30;99.90;;;;;;5067407;28;20508;-62
2022/06/22 07:58:25;;;;;;;4.30;3.90;;;25.50;99.90;;;;;;5067036;28;20531;-60
2022/06/22 08:00:58;;;;;;;5.67;4.53;;;25.80;99.90;;;;;;5065580;28;20454;-62
2022/06/22 08:03:32;;;;;;;7.37;4.73;;;25.80;99.90;;;;;;5064095;28;20421;-60
2022/06/22 08:06:15;;;;;;;12.00;4.90;;;25.80;99.90;;;;;;5066699;28;20440;-62
2022/06/22 08:08:53;;;;;;;10.97;4.30;;;25.70;99.90;;;;;;5068095;28;20760;-62
2022/06/22 08:11:27;;;;;;;5.43;4.57;;;25.50;99.90;;;;;;5064357;28;20461;-62
2022/06/22 08:14:07;;;;;;;8.20;4.80;;;26.10;99.90;;;;;;5069341;28;20564;-61
2022/06/22 08:16:39;;;;;;;5.37;3.90;;;26.40;99.90;;;;;;5066395;28;20568;-60
2022/06/22 08:19:07;;;;;;;4.27;3.87;;;26.80;99.90;;;;;;5066244;28;20461;-61
2022/06/22 08:21:40;;;;;;;7.23;4.20;;;26.90;99.90;;;;;;5079203;28;20461;-61
2022/06/22 08:24:11;;;;;;;4.40;3.97;;;27.00;99.90;;;;;;5079066;28;20850;-62
2022/06/22 08:26:39;;;;;;;6.43;3.33;;;26.90;99.90;;;;;;5078792;28;20468;-61
2022/06/22 08:29:07;;;;;;;3.73;3.40;;;27.10;99.90;;;;;;5078865;28;20552;-60
2022/06/22 08:31:40;;;;;;;4.33;3.93;;;26.80;99.90;;;;;;5078865;28;20937;-60
2022/06/22 08:34:16;;;;;;;4.53;4.07;;;27.10;99.90;;;;;;5079217;28;20556;-61
2022/06/22 08:36:47;;;;;;;6.07;3.90;;;27.40;99.90;;;;;;5078895;28;20465;-61
2022/06/22 08:39:24;;;;;;;3.50;3.20;;;27.10;99.90;;;;;;5078758;28;20467;-60
2022/06/22 08:42:00;;;;;;;4.77;3.70;;;27.60;99.90;;;;;;5078937;28;20460;-61
2022/06/22 08:44:40;;;;;;;6.70;4.13;;;28.00;99.90;;;;;;5078332;28;20461;-60
2022/06/22 08:47:52;;;;;;;5.73;3.73;;;26.70;99.90;;;;;;5078667;28;20899;-60
2022/06/22 08:50:49;;;;;;;4.40;3.97;;;27.40;99.90;;;;;;5042558;28;20475;-62
2022/06/22 08:53:38;;;;;;;4.03;3.60;;;27.70;99.90;;;;;;5071853;28;20490;-61
2022/06/22 08:56:24;;;;;;;5.27;3.00;;;27.70;99.90;;;;;;5069542;28;20774;-61
2022/06/22 08:59:26;;;;;;;6.30;3.57;;;27.50;99.90;;;;;;5078044;28;20457;-60
2022/06/22 09:02:10;;;;;;;4.00;3.10;;;27.10;99.90;;;;;;5077133;28;20461;-60
2022/06/22 09:05:03;;;;;;;3.70;3.03;;;27.30;99.90;;;;;;5077986;28;20806;-61
2022/06/22 09:08:00;;;;;;;3.73;3.37;;;27.10;99.90;;;;;;5066355;28;20567;-61
2022/06/22 09:10:45;;;;;;;4.67;3.07;;;27.60;99.90;;;;;;5077788;28;20996;-61
2022/06/22 09:13:42;;;;;;;7.43;3.40;;;28.30;99.90;;;;;;5078112;28;20493;-61
2022/06/22 09:16:25;;;;;;;4.60;3.20;;;28.10;99.90;;;;;;5077192;28;20763;-63
2022/06/22 09:19:21;;;;;;;6.00;4.00;;;27.90;99.90;;;;;;5078032;28;20547;-60
2022/06/22 09:22:02;;;;;;;3.80;3.50;;;28.10;99.90;;;;;;5077459;28;20465;-62
2022/06/22 09:24:41;;;;;;;4.80;3.47;;;28.30;99.90;;;;;;5077764;28;20893;-62
2022/06/22 09:27:16;;;;;;;5.80;4.27;;;29.10;99.90;;;;;;5078185;28;20461;-60
2022/06/22 09:30:03;;;;;;;5.50;4.10;;;28.70;99.90;;;;;;5077939;28;20889;-60
2022/06/22 09:32:57;;;;;;;7.07;3.30;;;28.10;99.90;;;;;;5077809;28;21020;-62
2022/06/22 09:36:04;;;;;;;4.43;3.00;;;29.00;99.90;;;;;;5065963;28;20917;-62
2022/06/22 09:39:13;;;;;;;3.90;2.80;;;29.00;99.90;;;;;;5043827;28;20569;-61
2022/06/22 09:42:01;;;;;;;4.63;3.07;;;28.50;99.90;;;;;;5055540;28;20794;-60
2022/06/22 09:45:03;;;;;;;3.97;3.60;;;29.40;99.90;;;;;;5058160;28;20487;-60
2022/06/22 09:47:56;;;;;;;4.67;3.30;;;29.70;99.90;;;;;;5054679;28;20872;-61
2022/06/22 09:51:07;;;;;;;4.43;3.77;;;29.70;99.90;;;;;;5051126;28;20558;-62
2022/06/22 09:54:09;;;;;;;6.80;3.70;;;30.20;99.90;;;;;;5032280;28;20494;-60
2022/06/22 09:56:57;;;;;;;5.43;3.03;;;30.00;99.90;;;;;;5036538;28;20743;-61
2022/06/22 09:59:59;;;;;;;4.73;3.43;;;29.10;99.90;;;;;;5036819;28;20459;-60
2022/06/22 10:02:57;;;;;;;6.03;3.60;;;29.90;99.90;;;;;;5026649;28;20524;-60
2022/06/22 10:05:50;;;;;;;3.97;3.67;;;29.20;99.90;;;;;;5037519;28;20489;-62
2022/06/22 10:08:35;;;;;;;6.23;3.63;;;29.80;99.90;;;;;;5036778;28;20814;-62
2022/06/22 10:11:14;;;;;;;5.97;4.07;;;30.50;99.90;;;;;;5052552;28;20458;-60
2022/06/22 10:14:09;;;;;;;3.70;3.00;;;30.40;99.90;;;;;;5057018;28;20493;-61
2022/06/22 10:16:53;;;;;;;3.40;3.10;;;30.50;99.90;;;;;;5056880;28;20521;-60
2022/06/22 10:19:45;;;;;;;5.27;2.90;;;31.30;99.90;;;;;;5057349;28;20457;-62
2022/06/22 10:22:23;;;;;;;6.43;3.43;;;31.60;99.90;;;;;;5055757;28;20863;-62
2022/06/22 10:25:15;;;;;;;4.17;3.20;;;31.20;99.90;;;;;;5055108;28;20468;-61
2022/06/22 10:28:09;;;;;;;4.40;3.40;;;31.30;99.90;;;;;;5056792;28;20515;-63
2022/06/22 10:30:49;;;;;;;5.00;3.47;;;30.90;99.90;;;;;;5056841;28;20882;-62
2022/06/22 10:33:35;;;;;;;6.70;3.20;;;30.90;99.90;;;;;;5057077;28;20529;-62
2022/06/22 10:36:25;;;;;;;4.20;2.90;;;31.10;99.90;;;;;;5056522;28;20465;-62
2022/06/22 10:39:37;;;;;;;4.23;3.80;;;30.40;99.90;;;;;;5056029;28;20469;-60
2022/06/22 10:45:18;;;;;;;3.20;2.90;;;31.70;99.90;;;;;;5055220;28;20864;-60
2022/06/22 10:48:17;;;;;;;5.53;2.87;;;31.00;99.90;;;;;;5055974;28;20473;-61
2022/06/22 10:51:03;;;;;;;5.10;3.23;;;31.30;99.90;;;;;;5006219;28;20497;-59
2022/06/22 10:54:13;;;;;;;3.87;3.57;;;31.60;99.90;;;;;;5051168;28;20500;-59
2022/06/22 10:57:10;;;;;;;3.23;2.93;;;31.00;99.90;;;;;;5055100;28;20461;-59
2022/06/22 11:00:11;;;;;;;3.87;3.13;;;31.70;99.90;;;;;;5055184;28;20979;-60
2022/06/22 11:03:25;;;;;;;5.63;3.17;;;32.30;99.90;;;;;;4974819;28;20773;-59
2022/06/22 11:06:19;;;;;;;3.83;2.57;;;32.10;99.90;;;;;;5057167;28;20461;-59
2022/06/22 11:09:21;;;;;;;3.20;2.90;;;32.10;99.90;;;;;;5057315;28;20841;-59
2022/06/22 11:12:16;;;;;;;6.40;3.00;;;30.70;99.90;;;;;;5057243;28;20457;-61
2022/06/22 11:15:23;;;;;;;3.37;3.07;;;30.80;99.90;;;;;;5051259;28;20465;-59
2022/06/22 11:18:31;;;;;;;3.70;3.50;;;31.70;99.90;;;;;;5056996;28;20453;-59
2022/06/22 11:21:22;;;;;;;5.83;3.30;;;32.10;99.90;;;;;;5055982;28;20563;-59
2022/06/22 11:24:17;;;;;;;7.27;3.70;;;32.30;99.90;;;;;;5051978;28;20564;-59
2022/06/22 11:33:08;;;;;;;3.97;3.30;;;30.50;99.90;;;;;;5049516;28;20737;-59
2022/06/22 11:35:54;;;;;;;2.97;2.73;;;31.20;99.90;;;;;;5060833;28;20462;-58
2022/06/22 11:38:58;;;;;;;2.90;2.70;;;31.90;99.90;;;;;;5068516;28;20424;-59
2022/06/22 11:41:51;;;;;;;3.03;2.83;;;30.80;99.90;;;;;;5067884;28;20858;-59
2022/06/22 11:47:44;;;;;;;3.73;3.33;;;30.10;99.90;;;;;;5061602;28;20792;-58
2022/06/22 11:50:34;;;;;;;7.10;3.63;;;30.70;99.90;;;;;;5065733;28;20758;-59
2022/06/22 11:53:16;;;;;;;3.20;2.93;;;31.10;99.90;;;;;;5064444;28;21005;-59
2022/06/22 11:55:49;;;;;;;3.17;2.97;;;31.40;99.90;;;;;;5068327;28;20509;-59
2022/06/22 11:58:40;;;;;;;2.93;2.63;;;31.90;99.90;;;;;;5071042;28;20493;-57
2022/06/22 12:01:49;;;;;;;3.40;3.10;;;32.40;99.90;;;;;;5073634;28;20462;-56
2022/06/22 12:04:54;;;;;;;2.60;2.40;;;30.90;99.90;;;;;;5066104;28;20445;-56
2022/06/22 12:07:57;;;;;;;3.80;3.10;;;31.10;99.90;;;;;;5079289;28;20733;-57
2022/06/22 12:10:50;;;;;;;4.47;2.90;;;31.50;99.90;;;;;;5063658;28;20473;-57
2022/06/22 12:13:37;;;;;;;3.00;2.80;;;31.60;99.90;;;;;;5038742;28;20494;-57
2022/06/22 12:16:19;;;;;;;4.80;2.47;;;32.20;99.90;;;;;;5038807;28;20497;-56
2022/06/22 12:19:06;;;;;;;5.00;2.73;;;32.50;99.90;;;;;;5048998;28;21033;-57
2022/06/22 12:21:55;;;;;;;3.13;2.80;;;32.80;99.90;;;;;;5058539;28;20472;-57
2022/06/22 12:24:33;;;;;;;2.97;2.77;;;32.60;99.90;;;;;;5061109;28;20507;-56
2022/06/22 12:27:15;;;;;;;3.00;2.70;;;32.40;99.90;;;;;;5062015;28;20767;-58
2022/06/22 12:30:10;;;;;;;3.43;2.97;;;32.70;99.90;;;;;;5056888;28;20480;-57
2022/06/22 12:32:43;;;;;;;3.20;2.93;;;32.80;99.90;;;;;;5058143;28;20549;-58
2022/06/22 12:35:24;;;;;;;3.40;3.00;;;32.60;99.90;;;;;;5057543;28;20465;-57
2022/06/22 12:37:57;;;;;;;4.00;3.00;;;32.90;99.90;;;;;;5057014;28;20571;-57
2022/06/22 12:40:36;;;;;;;3.37;3.07;;;32.00;99.90;;;;;;5062195;28;20445;-57
2022/06/22 12:43:34;;;;;;;2.90;2.70;;;31.60;99.90;;;;;;5039181;28;20501;-57
2022/06/22 12:46:11;;;;;;;2.97;2.67;;;32.20;99.90;;;;;;5039020;28;20469;-57
2022/06/22 12:49:26;;;;;;;3.07;2.37;;;32.50;99.90;;;;;;5045865;28;20472;-58
2022/06/22 12:52:03;;;;;;;3.40;2.97;;;32.50;99.90;;;;;;5024517;28;20539;-57
2022/06/22 12:54:36;;;;;;;3.50;3.20;;;32.90;99.90;;;;;;5057009;28;20502;-57
2022/06/22 12:57:09;;;;;;;3.30;2.47;;;33.20;99.90;;;;;;5061450;28;20473;-57
2022/06/22 12:59:41;;;;;;;2.60;2.30;;;33.60;99.90;;;;;;5058598;28;20544;-57
2022/06/22 13:02:14;;;;;;;4.17;3.53;;;33.60;99.90;;;;;;5051552;28;20448;-58
2022/06/22 13:04:47;;;;;;;3.80;3.50;;;33.30;99.90;;;;;;5054852;28;20470;-58
2022/06/22 13:07:20;;;;;;;4.53;2.97;;;33.20;99.90;;;;;;5051936;28;20454;-57
2022/06/22 13:09:50;;;;;;;3.83;3.40;;;33.10;99.90;;;;;;5051904;28;20474;-57
2022/06/22 13:12:24;;;;;;;4.50;3.37;;;33.00;99.90;;;;;;5054866;28;20899;-56
2022/06/22 13:14:59;;;;;;;3.17;2.87;;;33.20;99.90;;;;;;5056577;28;20467;-56
2022/06/22 13:17:31;;;;;;;2.87;2.67;;;33.20;99.90;;;;;;5057691;28;20485;-57
2022/06/22 13:20:17;;;;;;;5.50;3.27;;;33.50;99.90;;;;;;5065480;28;20853;-57
2022/06/22 13:22:55;;;;;;;3.30;3.10;;;33.40;99.90;;;;;;5065055;28;20515;-59
2022/06/22 13:25:35;;;;;;;3.17;2.97;;;32.90;99.90;;;;;;5057488;28;20720;-62
2022/06/22 13:28:18;;;;;;;3.57;3.33;;;33.20;99.90;;;;;;5058377;28;20432;-62
2022/06/22 13:30:52;;;;;;;3.10;2.83;;;33.80;99.90;;;;;;5055948;28;20523;-60
2022/06/22 13:33:29;;;;;;;4.13;3.03;;;33.70;99.90;;;;;;5057836;28;20930;-61
2022/06/22 13:36:07;;;;;;;3.70;2.87;;;33.60;99.90;;;;;;5057954;28;20546;-62
2022/06/22 13:38:56;;;;;;;4.70;2.73;;;33.70;99.90;;;;;;5058175;28;20508;-61
2022/06/22 13:41:41;;;;;;;3.60;3.23;;;33.70;99.90;;;;;;5057461;28;20465;-61
2022/06/22 13:44:29;;;;;;;3.30;3.10;;;32.70;99.90;;;;;;5058535;28;20453;-61
2022/06/22 13:47:39;;;;;;;3.00;2.80;;;33.20;99.90;;;;;;5058622;28;20545;-61
2022/06/22 13:50:32;;;;;;;2.70;2.50;;;32.30;99.90;;;;;;5058013;28;20501;-61
2022/06/22 13:53:07;;;;;;;3.40;3.10;;;32.30;99.90;;;;;;5058161;28;20814;-60
2022/06/22 13:55:49;;;;;;;4.50;2.80;;;32.80;99.90;;;;;;5058971;28;20552;-61
2022/06/22 13:58:20;;;;;;;3.30;3.00;;;32.60;99.90;;;;;;5058037;28;20507;-61
2022/06/22 14:00:57;;;;;;;4.70;2.93;;;32.30;99.90;;;;;;5058092;28;20724;-61
2022/06/22 14:03:34;;;;;;;3.60;3.30;;;32.50;99.90;;;;;;5057977;28;20841;-61
2022/06/22 14:06:12;;;;;;;3.80;3.40;;;33.10;99.90;;;;;;5057840;28;20469;-61
2022/06/22 14:09:02;;;;;;;4.57;2.50;;;32.50;99.90;;;;;;5058261;28;20817;-61
2022/06/22 14:11:40;;;;;;;7.33;2.77;;;32.30;99.90;;;;;;5057636;28;20512;-61
2022/06/22 14:14:21;;;;;;;2.50;2.30;;;31.70;99.90;;;;;;5057835;28;20489;-61